Time;durP1;ratioP1;P1;durP2;ratioP2;P2;SDS_P1;SDS_P2;PMS_P1;PMS_P2;Temp;Humidity;BMP_temperature;BMP_pressure;BME280_temperature;BME280_humidity;BME280_pressure;Samples;Min_cycle;Max_cycle;Signal;HPM_P1;HPM_P2
2022/05/04 00:00:12;;;;;;;10.07;6.15;;;;;;;14.78;50.91;100253.16;4869741;28;97177;-85
2022/05/04 00:02:41;;;;;;;8.82;6.03;;;;;;;14.81;50.53;100260.94;4875228;28;96735;-84
2022/05/04 00:05:07;;;;;;;10.27;6.03;;;;;;;14.91;48.62;100264.78;4859144;28;101524;-85
2022/05/04 00:07:33;;;;;;;12.00;6.75;;;;;;;14.85;48.94;100249.25;4875351;28;97897;-84
2022/05/04 00:09:59;;;;;;;13.93;5.68;;;;;;;14.85;48.90;100264.25;4852670;28;97152;-84
2022/05/04 00:12:25;;;;;;;10.80;6.20;;;;;;;14.76;49.61;100248.88;4868652;28;97272;-84
2022/05/04 00:14:51;;;;;;;11.13;6.18;;;;;;;14.68;50.03;100225.50;4860313;28;100969;-84
2022/05/04 00:17:17;;;;;;;14.52;6.65;;;;;;;14.77;49.87;100262.00;4872339;28;101422;-84
2022/05/04 00:19:43;;;;;;;14.38;7.07;;;;;;;14.65;49.83;100262.66;4875869;28;97304;-84
2022/05/04 00:22:09;;;;;;;10.73;6.70;;;;;;;14.68;49.82;100267.78;4859590;28;97132;-84
2022/05/04 00:24:34;;;;;;;11.98;7.22;;;;;;;14.49;49.61;100242.28;4875533;28;100674;-84
2022/05/04 00:27:00;;;;;;;11.82;6.85;;;;;;;14.58;49.89;100256.84;4876530;28;99808;-84
2022/05/04 00:29:25;;;;;;;11.60;7.72;;;;;;;14.63;50.80;100268.03;4875127;28;96983;-84
2022/05/04 00:31:51;;;;;;;24.83;9.73;;;;;;;14.63;51.19;100262.75;4875667;28;96982;-84
2022/05/04 00:34:17;;;;;;;14.77;9.65;;;;;;;14.43;51.47;100260.25;4890690;28;102919;-84
2022/05/04 00:36:42;;;;;;;14.98;7.85;;;;;;;13.89;51.62;100211.91;4865897;28;98744;-84
2022/05/04 00:39:08;;;;;;;18.38;7.85;;;;;;;14.26;51.93;100269.00;4871892;28;96972;-84
2022/05/04 00:41:33;;;;;;;15.43;6.60;;;;;;;14.28;52.11;100275.03;4859421;28;96998;-84
2022/05/04 00:43:59;;;;;;;13.98;7.40;;;;;;;14.26;51.62;100277.78;4859310;28;101407;-84
2022/05/04 00:46:25;;;;;;;11.85;7.05;;;;;;;14.13;51.80;100263.47;4855560;28;101607;-84
2022/05/04 00:48:50;;;;;;;12.70;7.05;;;;;;;14.15;52.07;100256.34;4889389;28;97387;-85
2022/05/04 00:51:16;;;;;;;15.00;7.43;;;;;;;14.20;51.84;100275.44;4858938;28;96959;-87
2022/05/04 00:53:43;;;;;;;13.02;7.68;;;;;;;14.17;51.83;100254.47;4855183;28;101690;-84
2022/05/04 00:56:09;;;;;;;16.73;9.30;;;;;;;14.07;53.05;100273.47;4855048;28;100710;-85
2022/05/04 00:58:54;;;;;;;17.52;10.95;;;;;;;14.15;52.90;100279.25;4871702;28;97327;-86
2022/05/04 01:01:24;;;;;;;18.90;11.52;;;;;;;14.06;52.70;100275.28;4872029;28;97262;-85
2022/05/04 01:03:50;;;;;;;17.70;10.00;;;;;;;14.06;52.78;100284.97;4890404;28;98553;-85
2022/05/04 01:06:15;;;;;;;14.60;7.65;;;;;;;13.87;53.35;100285.00;4856456;28;101545;-86
2022/05/04 01:08:41;;;;;;;13.30;6.82;;;;;;;13.75;52.93;100286.44;4891136;28;96777;-87
2022/05/04 01:11:07;;;;;;;16.42;7.00;;;;;;;13.81;53.39;100291.44;4862598;28;97167;-85
2022/05/04 01:13:32;;;;;;;13.55;7.53;;;;;;;13.75;52.97;100265.34;4852548;28;101705;-86
2022/05/04 01:15:58;;;;;;;11.88;6.82;;;;;;;13.79;53.01;100299.44;4861646;28;98374;-86
2022/05/04 01:18:23;;;;;;;14.77;8.40;;;;;;;13.49;53.63;100285.03;4863164;28;97244;-85
2022/05/04 01:20:49;;;;;;;16.20;8.38;;;;;;;13.68;53.44;100301.72;4875661;28;97774;-85
2022/05/04 01:23:16;;;;;;;11.35;7.47;;;;;;;13.57;53.67;100294.28;4867076;28;101773;-86
2022/05/04 01:25:41;;;;;;;13.95;8.13;;;;;;;13.57;54.19;100296.09;4869931;28;98015;-83
2022/05/04 01:28:07;;;;;;;11.00;7.78;;;;;;;13.62;54.07;100304.66;4874654;28;97115;-84
2022/05/04 01:30:34;;;;;;;16.92;8.35;;;;;;;13.47;53.60;100293.03;4855659;28;97231;-84
2022/05/04 01:33:00;;;;;;;15.07;7.55;;;;;;;13.43;53.59;100280.91;4873922;28;101296;-83
2022/05/04 01:35:26;;;;;;;13.60;7.72;;;;;;;13.70;53.10;100297.22;4874548;28;97980;-83
2022/05/04 01:37:52;;;;;;;14.07;8.15;;;;;;;13.58;53.68;100295.16;4858762;28;97170;-86
2022/05/04 01:40:18;;;;;;;10.90;7.30;;;;;;;13.43;53.97;100287.97;4874743;28;97181;-84
2022/05/04 01:42:44;;;;;;;17.48;8.18;;;;;;;13.34;53.75;100289.25;4873896;28;101981;-84
2022/05/04 01:45:10;;;;;;;13.00;7.82;;;;;;;13.52;53.28;100293.66;4882248;28;100915;-87
2022/05/04 01:47:36;;;;;;;12.50;7.93;;;;;;;13.58;53.19;100292.50;4874539;28;96770;-86
2022/05/04 01:50:03;;;;;;;10.57;7.47;;;;;;;13.52;53.95;100298.06;4875561;28;96685;-87
2022/05/04 01:52:29;;;;;;;13.25;8.05;;;;;;;13.43;53.74;100278.25;4873650;28;101513;-87
2022/05/04 01:54:55;;;;;;;13.00;8.30;;;;;;;13.48;54.04;100285.97;4874472;28;101032;-83
2022/05/04 01:57:22;;;;;;;17.88;9.40;;;;;;;13.60;54.08;100303.84;4870451;28;98093;-83
2022/05/04 01:59:47;;;;;;;14.30;9.27;;;;;;;13.52;54.62;100292.81;4884807;28;97332;-85
2022/05/04 02:02:13;;;;;;;15.48;8.85;;;;;;;13.67;54.32;100304.41;4889825;28;98164;-84
2022/05/04 02:04:39;;;;;;;18.65;9.35;;;;;;;13.55;54.72;100313.75;4866769;28;101404;-83
2022/05/04 02:07:08;;;;;;;19.20;9.25;;;;;;;13.54;54.71;100305.00;4878014;28;97333;-84
2022/05/04 02:09:39;;;;;;;16.15;9.93;;;;;;;13.33;54.97;100292.81;4882059;28;97213;-84
2022/05/04 02:12:05;;;;;;;;;;;;;;;13.46;54.71;100324.72;4878313;28;101640;-83
2022/05/04 02:14:32;;;;;;;14.27;8.05;;;;;;;13.34;55.41;100302.41;4877700;28;98201;-83
2022/05/04 02:16:58;;;;;;;14.10;8.73;;;;;;;13.33;55.31;100304.22;4894187;28;97082;-84
2022/05/04 02:19:24;;;;;;;12.57;7.88;;;;;;;13.46;54.88;100325.59;4878808;28;97146;-84
2022/05/04 02:21:49;;;;;;;16.77;9.40;;;;;;;13.43;54.30;100311.69;4858456;28;101107;-83
2022/05/04 02:24:15;;;;;;;15.52;8.25;;;;;;;13.55;54.30;100332.22;4863661;28;101292;-84
2022/05/04 02:26:40;;;;;;;13.95;8.15;;;;;;;13.64;53.58;100323.03;4893696;28;97165;-83
2022/05/04 02:29:06;;;;;;;14.70;8.75;;;;;;;13.42;53.42;100270.44;4862046;28;97396;-84
2022/05/04 02:31:32;;;;;;;14.77;8.82;;;;;;;13.64;52.56;100304.56;4868330;28;101927;-84
2022/05/04 02:33:57;;;;;;;15.93;9.38;;;;;;;13.36;53.21;100303.22;4875800;28;100733;-82
2022/05/04 02:39:07;;;;;;;15.93;9.23;;;;;;;13.35;53.67;100310.28;4892219;28;96895;-86
2022/05/04 02:41:33;;;;;;;17.70;9.10;;;;;;;13.10;54.43;100323.66;4866392;28;100991;-85
2022/05/04 02:44:01;;;;;;;13.20;8.27;;;;;;;13.10;54.85;100321.03;4886828;28;101629;-86
2022/05/04 02:46:28;;;;;;;15.07;8.25;;;;;;;13.01;54.93;100317.94;4881422;28;96726;-85
2022/05/04 02:48:53;;;;;;;14.52;9.38;;;;;;;13.10;54.85;100326.28;4875469;28;97607;-86
2022/05/04 02:51:19;;;;;;;18.58;8.55;;;;;;;13.00;54.84;100314.47;4876716;28;101571;-85
2022/05/04 02:53:47;;;;;;;15.25;8.70;;;;;;;13.17;55.10;100329.50;4872215;28;100173;-86
2022/05/04 02:56:15;;;;;;;15.88;9.02;;;;;;;13.11;54.96;100325.34;4859447;28;97290;-85
2022/05/04 02:58:42;;;;;;;17.35;8.63;;;;;;;12.98;55.35;100302.28;4857893;28;97287;-86
2022/05/04 03:03:58;;;;;;;17.25;8.43;;;;;;;13.04;55.22;100320.44;4890380;28;97847;-86
2022/05/04 03:06:24;;;;;;;17.65;9.43;;;;;;;13.03;55.23;100313.44;4860357;28;97794;-86
2022/05/04 03:08:49;;;;;;;14.05;8.98;;;;;;;13.01;55.50;100313.53;4861167;28;97003;-86
2022/05/04 03:13:59;;;;;;;19.17;9.07;;;;;;;13.02;56.08;100338.09;4891396;28;98142;-86
2022/05/04 03:16:25;;;;;;;21.30;9.20;;;;;;;12.93;55.62;100318.28;4879706;28;97207;-86
2022/05/04 03:18:51;;;;;;;21.77;10.60;;;;;;;12.84;56.23;100330.06;4861417;28;96902;-85
2022/05/04 03:21:16;;;;;;;25.23;11.98;;;;;;;12.80;56.04;100322.34;4860804;28;101553;-86
2022/05/04 03:23:42;;;;;;;18.45;9.48;;;;;;;12.99;55.80;100340.88;4857237;28;101529;-86
2022/05/04 03:26:08;;;;;;;18.13;9.90;;;;;;;12.90;56.19;100332.44;4875978;28;96923;-85
2022/05/04 03:28:34;;;;;;;16.50;10.02;;;;;;;12.84;56.43;100331.84;4893105;28;97190;-85
2022/05/04 03:30:59;;;;;;;21.63;10.30;;;;;;;13.01;56.22;100341.66;4892422;28;98417;-85
2022/05/04 03:33:25;;;;;;;19.63;10.63;;;;;;;12.86;55.76;100299.25;4890944;28;101138;-85
2022/05/04 03:35:51;;;;;;;17.13;9.05;;;;;;;12.96;56.06;100320.78;4875248;28;97701;-85
2022/05/04 03:38:17;;;;;;;14.13;9.38;;;;;;;12.77;56.77;100347.06;4859900;28;96910;-86
2022/05/04 03:40:43;;;;;;;24.08;10.43;;;;;;;12.79;57.38;100332.03;4872873;28;101256;-85
2022/05/04 03:43:09;;;;;;;17.48;9.32;;;;;;;13.01;56.67;100331.97;4865610;28;99928;-86
2022/05/04 03:45:34;;;;;;;20.33;9.45;;;;;;;13.06;56.47;100345.81;4870660;28;97171;-86
2022/05/04 03:48:00;;;;;;;23.23;10.63;;;;;;;13.11;56.57;100340.31;4891688;28;97158;-86
2022/05/04 03:50:26;;;;;;;16.30;9.30;;;;;;;13.05;56.62;100336.19;4854611;28;101463;-85
2022/05/04 03:52:51;;;;;;;15.13;9.10;;;;;;;13.10;56.86;100346.53;4860445;28;100140;-85
2022/05/04 03:55:17;;;;;;;17.65;9.52;;;;;;;13.05;57.25;100348.50;4860005;28;97276;-85
2022/05/04 03:57:42;;;;;;;15.80;9.68;;;;;;;12.71;56.83;100302.53;4876049;28;97025;-86
2022/05/04 04:00:09;;;;;;;16.75;9.23;;;;;;;13.02;56.82;100346.00;4859175;28;101465;-85
2022/05/04 04:02:35;;;;;;;19.10;9.90;;;;;;;13.12;56.81;100349.97;4874985;28;101377;-85
2022/05/04 04:05:01;;;;;;;16.80;9.27;;;;;;;13.19;56.29;100340.00;4859713;28;97301;-86
2022/05/04 04:07:27;;;;;;;18.83;9.65;;;;;;;13.29;56.45;100359.75;4859643;28;97040;-85
2022/05/04 04:09:52;;;;;;;20.83;9.57;;;;;;;12.88;56.77;100286.84;4892070;28;98139;-85
2022/05/04 04:12:18;;;;;;;19.05;10.73;;;;;;;13.49;56.02;100361.50;4859124;28;101920;-85
2022/05/04 04:14:43;;;;;;;18.77;11.10;;;;;;;13.46;56.11;100361.66;4875700;28;97033;-85
2022/05/04 04:17:09;;;;;;;22.60;10.35;;;;;;;13.60;55.63;100353.97;4876548;28;97512;-85
2022/05/04 04:19:35;;;;;;;16.88;10.20;;;;;;;13.37;55.60;100326.00;4874504;28;98611;-86
2022/05/04 04:22:01;;;;;;;14.27;9.73;;;;;;;13.54;55.43;100344.56;4873300;28;101556;-86
2022/05/04 04:24:27;;;;;;;18.70;9.50;;;;;;;13.61;55.40;100352.19;4870327;28;97259;-87
2022/05/04 04:26:52;;;;;;;21.17;9.63;;;;;;;13.58;55.28;100345.25;4849547;28;97208;-86
2022/05/04 04:29:18;;;;;;;16.05;9.15;;;;;;;13.71;55.29;100351.69;4860220;28;99051;-87
2022/05/04 04:31:44;;;;;;;24.60;10.20;;;;;;;13.75;54.95;100340.06;4890469;28;97411;-86
2022/05/04 04:34:09;;;;;;;15.82;8.95;;;;;;;13.87;54.61;100348.31;4873302;28;96765;-86
2022/05/04 04:36:35;;;;;;;17.90;9.43;;;;;;;13.84;54.15;100335.28;4848029;28;97295;-86
2022/05/04 04:39:01;;;;;;;17.60;8.68;;;;;;;14.02;53.54;100351.09;4871799;28;98372;-85
2022/05/04 04:41:27;;;;;;;15.80;8.30;;;;;;;14.20;53.20;100357.28;4859391;28;101288;-86
2022/05/04 04:43:52;;;;;;;13.68;8.80;;;;;;;14.19;52.16;100362.63;4874576;28;97030;-84
2022/05/04 04:46:18;;;;;;;16.23;8.48;;;;;;;14.32;51.00;100371.66;4882558;28;97136;-86
2022/05/04 04:48:44;;;;;;;22.05;8.68;;;;;;;14.32;51.23;100369.03;4875167;28;100809;-87
2022/05/04 04:51:09;;;;;;;16.02;8.07;;;;;;;14.39;51.48;100377.50;4883323;28;98983;-85
2022/05/04 04:53:35;;;;;;;14.85;7.97;;;;;;;14.74;52.15;100383.72;4902670;28;97463;-86
2022/05/04 04:56:00;;;;;;;19.95;8.45;;;;;;;15.07;51.57;100385.59;4882138;28;97154;-86
2022/05/04 04:58:26;;;;;;;15.63;8.05;;;;;;;15.07;51.88;100393.53;4856129;28;101259;-85
2022/05/04 05:00:52;;;;;;;20.30;10.48;;;;;;;15.22;51.65;100392.72;4877959;28;101364;-83
2022/05/04 05:03:17;;;;;;;17.55;9.35;;;;;;;15.16;51.78;100393.88;4886266;28;97250;-83
2022/05/04 05:05:44;;;;;;;17.55;9.25;;;;;;;15.13;51.72;100372.91;4894427;28;97187;-82
2022/05/04 05:08:10;;;;;;;28.55;9.60;;;;;;;15.45;51.48;100404.75;4883164;28;101299;-86
2022/05/04 05:10:36;;;;;;;16.95;9.00;;;;;;;15.81;50.93;100388.69;4856623;28;101534;-86
2022/05/04 05:13:02;;;;;;;16.85;8.80;;;;;;;16.22;50.35;100396.13;4870680;28;97440;-86
2022/05/04 05:18:12;;;;;;;15.63;10.02;;;;;;;16.28;49.62;100401.06;4871756;28;101191;-83
2022/05/04 05:20:37;;;;;;;14.50;10.00;;;;;;;16.41;49.08;100398.59;4872094;28;101554;-79
2022/05/04 05:23:04;;;;;;;19.10;10.13;;;;;;;16.64;48.04;100399.94;4857925;28;97298;-78
2022/05/04 05:25:31;;;;;;;16.83;10.25;;;;;;;16.60;48.54;100392.25;4873199;28;97325;-79
2022/05/04 05:27:57;;;;;;;20.77;10.27;;;;;;;17.07;47.47;100393.91;4857709;28;101632;-79
2022/05/04 05:30:22;;;;;;;17.42;10.95;;;;;;;17.39;46.67;100394.63;4869082;28;101344;-80
2022/05/04 05:32:48;;;;;;;17.48;10.90;;;;;;;17.98;45.57;100395.41;4871925;28;98059;-76
2022/05/04 05:35:14;;;;;;;17.73;10.15;;;;;;;19.08;43.88;100395.28;4888648;28;97253;-74
2022/05/04 05:37:39;;;;;;;19.88;11.35;;;;;;;20.07;41.71;100381.22;4869431;28;98171;-75
2022/05/04 05:40:05;;;;;;;16.83;10.18;;;;;;;19.28;43.04;100404.53;4886270;28;97938;-74
2022/05/04 05:42:32;;;;;;;20.05;11.00;;;;;;;18.44;44.24;100379.13;4856595;28;96950;-75
2022/05/04 05:44:58;;;;;;;18.88;10.50;;;;;;;18.88;44.27;100391.31;4888753;28;97458;-74
2022/05/04 05:47:24;;;;;;;16.45;10.20;;;;;;;20.56;41.07;100393.63;4872833;28;97534;-75
2022/05/04 05:49:49;;;;;;;15.93;9.65;;;;;;;21.65;39.00;100378.13;4873960;28;98551;-75
2022/05/04 05:52:15;;;;;;;18.77;10.60;;;;;;;22.38;37.68;100376.69;4872757;28;97350;-75
2022/05/04 05:54:40;;;;;;;18.95;9.95;;;;;;;23.28;36.36;100384.28;4866582;28;97586;-74
2022/05/04 05:57:06;;;;;;;12.07;9.80;;;;;;;24.33;35.36;100378.63;4888773;28;100732;-74
2022/05/04 05:59:31;;;;;;;23.27;10.77;;;;;;;25.05;33.81;100371.16;4888771;28;97524;-74
2022/05/04 06:01:57;;;;;;;20.45;9.57;;;;;;;25.02;33.13;100380.34;4856395;28;97513;-75
2022/05/04 06:04:23;;;;;;;19.63;10.50;;;;;;;26.02;32.25;100364.59;4889132;28;96909;-75
2022/05/04 06:06:48;;;;;;;21.98;9.27;;;;;;;26.50;31.81;100372.34;4866989;28;100883;-75
2022/05/04 06:09:14;;;;;;;18.77;9.50;;;;;;;26.69;31.63;100376.72;4856297;28;99345;-75
2022/05/04 06:11:39;;;;;;;13.32;8.93;;;;;;;27.57;30.44;100370.44;4872875;28;96783;-77
2022/05/04 06:14:05;;;;;;;20.67;9.85;;;;;;;28.25;29.25;100375.78;4872557;28;97189;-75
2022/05/04 06:16:30;;;;;;;16.33;9.45;;;;;;;28.32;28.48;100357.06;4888455;28;97650;-76
2022/05/04 06:18:56;;;;;;;13.02;9.02;;;;;;;28.72;28.44;100369.78;4873197;28;101281;-75
2022/05/04 06:21:22;;;;;;;16.10;9.43;;;;;;;29.05;27.80;100370.63;4851445;28;96875;-75
2022/05/04 06:23:47;;;;;;;18.58;8.75;;;;;;;29.42;27.60;100371.06;4888274;28;96892;-80
2022/05/04 06:26:13;;;;;;;20.10;8.75;;;;;;;29.71;26.70;100373.19;4857534;28;101626;-76
2022/05/04 06:28:39;;;;;;;13.02;7.70;;;;;;;29.84;27.07;100367.19;4889811;28;98286;-75
2022/05/04 06:34:07;;;;;;;13.07;7.80;;;;;;;30.65;25.92;100366.72;4888514;28;97363;-80
2022/05/04 06:36:36;;;;;;;14.52;8.43;;;;;;;29.92;24.88;100364.47;4878592;28;101575;-78
2022/05/04 06:39:02;;;;;;;12.53;9.07;;;;;;;29.94;24.85;100357.03;4872642;28;101971;-79
2022/05/04 06:41:28;;;;;;;10.20;7.80;;;;;;;30.75;24.57;100368.31;4872030;28;97441;-79
2022/05/04 06:43:53;;;;;;;11.52;7.90;;;;;;;31.27;23.27;100370.22;4871817;28;96992;-80
2022/05/04 06:46:19;;;;;;;9.57;8.35;;;;;;;30.43;24.27;100364.88;4887805;28;98366;-81
2022/05/04 06:48:45;;;;;;;10.77;8.15;;;;;;;30.80;24.31;100355.94;4862121;28;97615;-79
2022/05/04 06:51:11;;;;;;;9.98;8.98;;;;;;;30.51;24.22;100359.38;4884050;28;97612;-81
2022/05/04 06:53:37;;;;;;;14.98;8.60;;;;;;;31.18;23.24;100355.91;4890087;28;97497;-81
2022/05/04 06:56:02;;;;;;;13.40;8.77;;;;;;;31.88;22.98;100348.34;4867862;28;97469;-81
2022/05/04 06:58:28;;;;;;;11.70;9.35;;;;;;;31.96;22.94;100364.53;4889747;28;97438;-81
2022/05/04 07:00:53;;;;;;;22.13;8.50;;;;;;;32.34;22.73;100358.91;4872481;28;97200;-81
2022/05/04 07:03:21;;;;;;;15.15;9.07;;;;;;;32.45;22.91;100347.56;4891176;28;97707;-82
2022/05/04 07:05:47;;;;;;;11.13;8.95;;;;;;;31.99;22.95;100356.84;4879335;28;101575;-82
2022/05/04 07:08:13;;;;;;;12.32;8.38;;;;;;;32.37;22.65;100363.94;4884269;28;97542;-82
2022/05/04 07:10:38;;;;;;;17.30;8.73;;;;;;;32.67;21.61;100370.97;4864323;28;96809;-82
2022/05/04 07:13:04;;;;;;;14.13;8.93;;;;;;;32.64;21.71;100367.81;4867662;28;97267;-82
2022/05/04 07:15:30;;;;;;;10.52;8.02;;;;;;;33.67;21.65;100344.50;4881871;28;97420;-82
2022/05/04 07:17:56;;;;;;;15.32;8.90;;;;;;;33.94;21.43;100358.22;4871457;28;97306;-83
2022/05/04 07:20:21;;;;;;;9.70;8.65;;;;;;;34.53;21.17;100364.84;4883253;28;96892;-83
2022/05/04 07:22:47;;;;;;;22.35;9.23;;;;;;;34.48;21.39;100351.88;4881234;28;96938;-84
2022/05/04 07:25:13;;;;;;;16.42;9.27;;;;;;;34.25;20.96;100368.59;4874434;28;100731;-82
2022/05/04 07:27:38;;;;;;;12.32;8.38;;;;;;;34.19;21.47;100372.97;4869976;28;97327;-82
2022/05/04 07:30:04;;;;;;;15.73;8.18;;;;;;;35.16;20.54;100368.06;4874936;28;96889;-82
2022/05/04 07:32:30;;;;;;;11.85;8.70;;;;;;;35.80;19.67;100361.81;4890091;28;97437;-82
2022/05/04 07:34:55;;;;;;;14.93;9.43;;;;;;;35.40;19.44;100369.25;4884205;28;98952;-81
2022/05/04 07:37:21;;;;;;;18.92;9.77;;;;;;;35.88;19.32;100371.66;4870073;28;101565;-83
2022/05/04 07:42:31;;;;;;;12.38;8.43;;;;;;;34.84;20.33;100367.84;4877897;28;96980;-81
2022/05/04 07:44:58;;;;;;;9.90;7.28;;;;;;;36.07;19.77;100375.38;4854927;28;101504;-81
2022/05/04 07:47:30;;;;;;;13.25;7.10;;;;;;;37.13;19.19;100379.28;4871795;28;97617;-80
2022/05/04 07:49:56;;;;;;;12.10;7.65;;;;;;;37.25;18.42;100372.00;4865974;28;98367;-79
2022/05/04 07:52:22;;;;;;;9.07;6.90;;;;;;;36.75;19.38;100372.00;4868899;28;96732;-80
2022/05/04 07:54:48;;;;;;;10.50;7.07;;;;;;;36.00;18.43;100366.34;4865170;28;97740;-79
2022/05/04 07:57:13;;;;;;;12.52;7.47;;;;;;;35.30;19.05;100367.00;4871791;28;100853;-79
2022/05/04 07:59:39;;;;;;;11.75;7.25;;;;;;;35.04;19.01;100375.19;4854805;28;97115;-79
2022/05/04 08:04:49;;;;;;;10.45;6.90;;;;;;;35.74;19.42;100372.78;4862479;28;98450;-78
2022/05/04 08:07:16;;;;;;;12.95;6.80;;;;;;;36.64;18.83;100370.81;4856125;28;101783;-80
2022/05/04 08:09:42;;;;;;;13.77;7.07;;;;;;;36.98;18.28;100381.50;4871750;28;96773;-79
2022/05/04 08:12:08;;;;;;;11.00;6.88;;;;;;;36.96;18.16;100378.97;4872365;28;97406;-79
2022/05/04 08:14:35;;;;;;;11.05;7.25;;;;;;;36.68;18.77;100382.16;4872195;28;97508;-80
2022/05/04 08:17:00;;;;;;;12.13;7.35;;;;;;;36.84;18.03;100383.50;4855852;28;101279;-80
2022/05/04 08:19:26;;;;;;;10.52;6.70;;;;;;;36.47;18.20;100381.44;4871120;28;97214;-80
2022/05/04 08:21:52;;;;;;;12.57;6.78;;;;;;;35.92;18.47;100378.34;4864342;28;96857;-80
2022/05/04 08:24:18;;;;;;;11.10;6.55;;;;;;;36.24;19.11;100378.44;4869521;28;99781;-80
2022/05/04 08:26:44;;;;;;;9.07;5.88;;;;;;;37.17;18.87;100385.97;4871104;28;101319;-86
2022/05/04 08:29:10;;;;;;;8.48;5.68;;;;;;;37.39;19.04;100380.91;4871022;28;98237;-81
2022/05/04 08:31:36;;;;;;;9.00;6.55;;;;;;;37.20;18.44;100385.50;4870518;28;97440;-81
2022/05/04 08:34:02;;;;;;;10.93;6.15;;;;;;;37.02;19.11;100375.38;4886512;28;101924;-82
2022/05/04 08:36:27;;;;;;;11.77;6.20;;;;;;;37.53;18.32;100381.63;4870747;28;98302;-82
2022/05/04 08:38:53;;;;;;;10.73;6.40;;;;;;;37.41;17.72;100380.66;4855817;28;96959;-81
2022/05/04 08:41:18;;;;;;;10.63;6.50;;;;;;;37.48;18.45;100386.94;4871134;28;97426;-81
2022/05/04 08:43:44;;;;;;;13.10;6.47;;;;;;;37.66;18.08;100386.09;4854147;28;97502;-81
2022/05/04 08:46:13;;;;;;;9.95;6.00;;;;;;;37.25;17.73;100382.94;4889973;28;97819;-81
2022/05/04 08:48:40;;;;;;;7.93;6.13;;;;;;;38.34;17.11;100372.16;4874005;28;97353;-81
2022/05/04 08:51:06;;;;;;;11.18;5.78;;;;;;;37.33;18.10;100381.81;4858641;28;97021;-81
2022/05/04 08:53:32;;;;;;;8.65;6.00;;;;;;;37.44;17.84;100385.69;4871087;28;98055;-81
2022/05/04 08:55:58;;;;;;;13.85;6.28;;;;;;;37.26;18.28;100381.03;4889717;28;100726;-81
2022/05/04 08:58:24;;;;;;;9.43;5.85;;;;;;;37.62;18.50;100372.03;4877355;28;97059;-81
2022/05/04 09:00:49;;;;;;;12.02;5.28;;;;;;;37.53;18.67;100370.69;4874192;28;97489;-81
2022/05/04 09:03:15;;;;;;;8.00;5.97;;;;;;;38.35;16.94;100370.25;4872741;28;100914;-81
2022/05/04 09:05:45;;;;;;;10.95;6.10;;;;;;;37.53;16.92;100360.56;4872590;28;100908;-81
2022/05/04 09:08:11;;;;;;;9.20;5.55;;;;;;;37.63;17.80;100359.19;4861349;28;97110;-81
2022/05/04 09:10:38;;;;;;;11.57;5.10;;;;;;;37.68;18.24;100368.38;4873616;28;97341;-81
2022/05/04 09:13:04;;;;;;;10.40;5.60;;;;;;;38.02;17.59;100371.53;4856548;28;100806;-81
2022/05/04 09:15:31;;;;;;;9.45;5.43;;;;;;;38.08;17.72;100353.34;4872728;28;101863;-81
2022/05/04 09:17:58;;;;;;;7.88;5.22;;;;;;;37.87;17.41;100371.09;4872721;28;98031;-81
2022/05/04 09:23:13;;;;;;;6.05;4.28;;;;;;;37.58;17.02;100366.16;4890656;28;101166;-81
2022/05/04 09:25:39;;;;;;;7.18;4.47;;;;;;;33.89;19.59;100357.97;4870290;28;97544;-81
2022/05/04 09:28:10;;;;;;;10.43;5.75;;;;;;;34.75;19.49;100360.94;4873294;28;97553;-80
2022/05/04 09:30:37;;;;;;;9.73;5.10;;;;;;;33.14;20.42;100360.50;4891254;28;97430;-81
2022/05/04 09:33:09;;;;;;;8.45;4.90;;;;;;;31.83;21.77;100369.78;4872553;28;101828;-77
2022/05/04 09:35:35;;;;;;;9.15;4.50;;;;;;;31.58;23.63;100361.94;4889082;28;97360;-75
2022/05/04 09:46:32;;;;;;;10.55;5.72;;;;;;;32.92;22.04;100365.09;4888961;28;98491;-79
2022/05/04 09:48:57;;;;;;;12.35;7.18;;;;;;;30.96;23.05;100364.97;4890083;28;96848;-79
2022/05/04 09:51:27;;;;;;;8.63;4.88;;;;;;;30.77;24.20;100371.69;4888692;28;97237;-78
2022/05/04 09:53:53;;;;;;;10.95;5.35;;;;;;;32.17;22.83;100364.59;4889688;28;99332;-81
2022/05/04 09:56:19;;;;;;;6.28;4.38;;;;;;;31.72;24.18;100361.09;4877995;28;101737;-79
2022/05/04 09:58:45;;;;;;;7.70;4.32;;;;;;;31.02;24.64;100350.69;4889359;28;97472;-77
2022/05/04 10:01:11;;;;;;;8.65;4.90;;;;;;;31.75;24.54;100360.72;4873425;28;96881;-78
2022/05/04 10:03:37;;;;;;;8.70;4.60;;;;;;;31.24;24.04;100365.19;4888165;28;97606;-78
2022/05/04 10:06:03;;;;;;;7.20;5.50;;;;;;;30.59;25.64;100355.75;4890628;28;98012;-79
2022/05/04 10:08:29;;;;;;;7.13;4.07;;;;;;;31.00;24.36;100361.69;4888009;28;96871;-78
2022/05/04 10:10:55;;;;;;;7.18;4.30;;;;;;;30.38;24.63;100351.03;4873229;28;97182;-80
2022/05/04 10:13:21;;;;;;;8.32;4.60;;;;;;;30.79;24.27;100335.31;4868402;28;101480;-77
2022/05/04 10:15:50;;;;;;;9.00;5.47;;;;;;;30.99;22.36;100345.63;4886669;28;97379;-77
2022/05/04 10:18:22;;;;;;;9.70;4.63;;;;;;;30.32;23.77;100341.75;4857912;28;98023;-78
2022/05/04 10:20:48;;;;;;;7.05;5.55;;;;;;;29.17;23.60;100354.06;4869898;28;96923;-77
2022/05/04 10:23:18;;;;;;;7.15;4.80;;;;;;;28.72;24.25;100350.88;4878481;28;101610;-78
2022/05/04 10:25:44;;;;;;;12.63;5.63;;;;;;;28.85;24.52;100351.19;4892455;28;98423;-78
2022/05/04 10:28:14;;;;;;;7.63;5.22;;;;;;;28.83;25.32;100344.28;4872952;28;96906;-79
2022/05/04 10:30:56;;;;;;;9.27;5.90;;;;;;;27.94;26.63;100343.97;4887233;28;97219;-78
2022/05/04 10:33:31;;;;;;;7.07;4.90;;;;;;;27.51;27.58;100353.88;4873315;28;101353;-80
2022/05/04 10:35:57;;;;;;;8.55;4.95;;;;;;;27.81;27.57;100323.88;4892403;28;98670;-76
2022/05/04 10:38:28;;;;;;;8.35;4.72;;;;;;;28.22;27.75;100335.63;4876249;28;97055;-75
2022/05/04 10:40:58;;;;;;;9.63;4.22;;;;;;;28.28;26.44;100326.03;4875407;28;96823;-77
2022/05/04 10:43:47;;;;;;;5.13;3.60;;;;;;;28.27;26.92;100333.25;4859212;28;101063;-78
2022/05/04 10:46:18;;;;;;;7.40;4.60;;;;;;;28.46;25.03;100339.41;4876706;28;98364;-77
2022/05/04 10:48:56;;;;;;;7.05;3.75;;;;;;;28.37;25.13;100342.06;4840361;28;97037;-78
2022/05/04 10:51:24;;;;;;;8.80;3.38;;;;;;;28.20;25.93;100332.25;4855693;28;97828;-78
2022/05/04 10:53:55;;;;;;;10.50;3.33;;;;;;;28.22;26.06;100314.03;4844178;28;99553;-78
2022/05/04 10:56:23;;;;;;;7.45;4.10;;;;;;;28.41;26.04;100329.94;4871042;28;97845;-78
2022/05/04 10:59:01;;;;;;;6.43;3.97;;;;;;;28.29;26.28;100333.09;4871019;28;97660;-78
2022/05/04 11:01:36;;;;;;;7.22;4.10;;;;;;;28.29;25.87;100328.53;4854075;28;96896;-80
2022/05/04 11:04:10;;;;;;;9.63;4.28;;;;;;;27.91;26.38;100327.28;4856964;28;97554;-76
2022/05/04 11:06:50;;;;;;;6.68;4.40;;;;;;;28.00;26.78;100307.41;4869246;28;98064;-77
2022/05/04 11:09:18;;;;;;;5.88;4.60;;;;;;;27.83;26.00;100298.44;4841828;28;97977;-79
2022/05/04 11:11:48;;;;;;;8.20;4.65;;;;;;;27.79;26.33;100320.53;4839050;29;97315;-80
2022/05/04 11:14:16;;;;;;;4.85;4.07;;;;;;;27.40;26.68;100321.00;4853014;28;102064;-80
2022/05/04 11:16:43;;;;;;;9.55;4.35;;;;;;;27.44;27.90;100323.22;4871871;28;97923;-80
2022/05/04 11:19:11;;;;;;;5.78;4.18;;;;;;;27.13;27.58;100322.00;4872689;28;96724;-80
2022/05/04 11:21:37;;;;;;;5.90;4.80;;;;;;;27.22;26.80;100304.91;4877232;28;97141;-80
2022/05/04 11:24:05;;;;;;;13.30;5.18;;;;;;;26.80;27.31;100330.72;4848585;28;100893;-78
2022/05/04 11:26:38;;;;;;;6.72;3.28;;;;;;;27.04;28.03;100310.31;4849194;28;101729;-80
2022/05/04 11:29:11;;;;;;;9.05;4.47;;;;;;;26.90;27.82;100324.38;4853756;28;96795;-79
2022/05/04 11:31:37;;;;;;;8.90;3.90;;;;;;;26.82;27.85;100322.44;4862373;28;97268;-79
2022/05/04 11:34:03;;;;;;;7.68;4.25;;;;;;;26.62;27.54;100301.13;4850625;28;97548;-79
2022/05/04 11:36:29;;;;;;;6.10;4.50;;;;;;;26.98;26.30;100316.34;4860541;28;97934;-79
2022/05/04 11:38:54;;;;;;;8.35;5.15;;;;;;;26.77;25.69;100317.56;4841919;28;97298;-79
2022/05/04 11:41:20;;;;;;;6.82;4.82;;;;;;;25.84;26.30;100297.34;4840138;28;97318;-78
2022/05/04 11:43:50;;;;;;;7.90;4.00;;;;;;;25.72;26.87;100299.38;4872155;28;98269;-79